sensor_id;sensor_type;location;lat;lon;timestamp;pressure;altitude;pressure_sealevel;temperature
20058;BMP180;10189;49.546;7.906;2022-12-10T00:01:15;97071.00;;;3.50
20058;BMP180;10189;49.546;7.906;2022-12-10T00:03:42;97078.00;;;3.60
20058;BMP180;10189;49.546;7.906;2022-12-10T00:06:18;97069.00;;;3.50
20058;BMP180;10189;49.546;7.906;2022-12-10T00:08:45;97066.00;;;3.50
20058;BMP180;10189;49.546;7.906;2022-12-10T00:11:13;97084.00;;;3.50
20058;BMP180;10189;49.546;7.906;2022-12-10T00:13:41;97085.00;;;3.40
20058;BMP180;10189;49.546;7.906;2022-12-10T00:16:10;97074.00;;;3.50
20058;BMP180;10189;49.546;7.906;2022-12-10T00:18:37;97081.00;;;3.50
20058;BMP180;10189;49.546;7.906;2022-12-10T00:21:13;97074.00;;;3.50
20058;BMP180;10189;49.546;7.906;2022-12-10T00:23:40;97068.00;;;3.50
20058;BMP180;10189;49.546;7.906;2022-12-10T00:26:10;97075.00;;;3.50
20058;BMP180;10189;49.546;7.906;2022-12-10T00:28:37;97073.00;;;3.60
20058;BMP180;10189;49.546;7.906;2022-12-10T00:31:05;97075.00;;;3.50
20058;BMP180;10189;49.546;7.906;2022-12-10T00:33:32;97076.00;;;3.50
20058;BMP180;10189;49.546;7.906;2022-12-10T00:36:18;97072.00;;;3.40
20058;BMP180;10189;49.546;7.906;2022-12-10T00:38:45;97081.00;;;3.40
20058;BMP180;10189;49.546;7.906;2022-12-10T00:41:12;97080.00;;;3.30
20058;BMP180;10189;49.546;7.906;2022-12-10T00:43:39;97074.00;;;3.30
20058;BMP180;10189;49.546;7.906;2022-12-10T00:46:06;97073.00;;;3.40
20058;BMP180;10189;49.546;7.906;2022-12-10T00:48:33;97083.00;;;3.30
20058;BMP180;10189;49.546;7.906;2022-12-10T00:51:03;97084.00;;;3.30
20058;BMP180;10189;49.546;7.906;2022-12-10T00:53:31;97073.00;;;3.40
20058;BMP180;10189;49.546;7.906;2022-12-10T00:55:58;97076.00;;;3.30
20058;BMP180;10189;49.546;7.906;2022-12-10T00:58:28;97080.00;;;3.40
20058;BMP180;10189;49.546;7.906;2022-12-10T01:01:01;97084.00;;;3.30
20058;BMP180;10189;49.546;7.906;2022-12-10T01:03:31;97076.00;;;3.30
20058;BMP180;10189;49.546;7.906;2022-12-10T01:05:57;97086.00;;;3.40
20058;BMP180;10189;49.546;7.906;2022-12-10T01:08:22;97083.00;;;3.40
20058;BMP180;10189;49.546;7.906;2022-12-10T01:10:53;97087.00;;;3.30
20058;BMP180;10189;49.546;7.906;2022-12-10T01:13:19;97075.00;;;3.30
20058;BMP180;10189;49.546;7.906;2022-12-10T01:15:44;97085.00;;;3.40
20058;BMP180;10189;49.546;7.906;2022-12-10T01:18:10;97092.00;;;3.40
20058;BMP180;10189;49.546;7.906;2022-12-10T01:20:36;97094.00;;;3.30
20058;BMP180;10189;49.546;7.906;2022-12-10T01:23:02;97107.00;;;3.40
20058;BMP180;10189;49.546;7.906;2022-12-10T01:25:30;97097.00;;;3.40
20058;BMP180;10189;49.546;7.906;2022-12-10T01:27:56;97114.00;;;3.30
20058;BMP180;10189;49.546;7.906;2022-12-10T01:30:23;97116.00;;;3.40
20058;BMP180;10189;49.546;7.906;2022-12-10T01:32:49;97130.00;;;3.50
20058;BMP180;10189;49.546;7.906;2022-12-10T01:35:15;97116.00;;;3.40
20058;BMP180;10189;49.546;7.906;2022-12-10T01:37:41;97127.00;;;3.40
20058;BMP180;10189;49.546;7.906;2022-12-10T01:40:08;97118.00;;;3.40
20058;BMP180;10189;49.546;7.906;2022-12-10T01:42:34;97132.00;;;3.40
20058;BMP180;10189;49.546;7.906;2022-12-10T01:45:06;97117.00;;;3.40
20058;BMP180;10189;49.546;7.906;2022-12-10T01:47:33;97119.00;;;3.40
20058;BMP180;10189;49.546;7.906;2022-12-10T01:49:59;97129.00;;;3.30
20058;BMP180;10189;49.546;7.906;2022-12-10T01:52:27;97128.00;;;3.30
20058;BMP180;10189;49.546;7.906;2022-12-10T01:54:55;97134.00;;;3.30
20058;BMP180;10189;49.546;7.906;2022-12-10T01:57:26;97122.00;;;3.30
20058;BMP180;10189;49.546;7.906;2022-12-10T01:59:58;97132.00;;;3.40
20058;BMP180;10189;49.546;7.906;2022-12-10T02:03:07;97133.00;;;3.40
20058;BMP180;10189;49.546;7.906;2022-12-10T02:05:49;97137.00;;;3.30
20058;BMP180;10189;49.546;7.906;2022-12-10T02:08:30;97132.00;;;3.40
20058;BMP180;10189;49.546;7.906;2022-12-10T02:11:19;97135.00;;;3.40
20058;BMP180;10189;49.546;7.906;2022-12-10T02:13:55;97135.00;;;3.40
20058;BMP180;10189;49.546;7.906;2022-12-10T02:16:40;97138.00;;;3.30
20058;BMP180;10189;49.546;7.906;2022-12-10T02:19:50;97129.00;;;3.30
20058;BMP180;10189;49.546;7.906;2022-12-10T02:22:20;97141.00;;;3.40
20058;BMP180;10189;49.546;7.906;2022-12-10T02:24:51;97132.00;;;3.40
20058;BMP180;10189;49.546;7.906;2022-12-10T02:27:32;97126.00;;;3.50
20058;BMP180;10189;49.546;7.906;2022-12-10T02:30:01;97138.00;;;3.40
20058;BMP180;10189;49.546;7.906;2022-12-10T02:32:40;97123.00;;;3.40
20058;BMP180;10189;49.546;7.906;2022-12-10T02:35:16;97134.00;;;3.40
20058;BMP180;10189;49.546;7.906;2022-12-10T02:38:35;97131.00;;;3.50
20058;BMP180;10189;49.546;7.906;2022-12-10T02:41:20;97138.00;;;3.40
20058;BMP180;10189;49.546;7.906;2022-12-10T02:43:52;97123.00;;;3.40
20058;BMP180;10189;49.546;7.906;2022-12-10T02:46:23;97127.00;;;3.30
20058;BMP180;10189;49.546;7.906;2022-12-10T02:48:52;97114.00;;;3.40
20058;BMP180;10189;49.546;7.906;2022-12-10T02:51:18;97121.00;;;3.40
20058;BMP180;10189;49.546;7.906;2022-12-10T02:53:45;97130.00;;;3.30
20058;BMP180;10189;49.546;7.906;2022-12-10T02:56:29;97121.00;;;3.40
20058;BMP180;10189;49.546;7.906;2022-12-10T02:59:09;97120.00;;;3.50
20058;BMP180;10189;49.546;7.906;2022-12-10T03:04:41;97118.00;;;3.40
20058;BMP180;10189;49.546;7.906;2022-12-10T03:07:25;97113.00;;;3.40
20058;BMP180;10189;49.546;7.906;2022-12-10T03:10:09;97114.00;;;3.30
20058;BMP180;10189;49.546;7.906;2022-12-10T03:12:46;97116.00;;;3.40
20058;BMP180;10189;49.546;7.906;2022-12-10T03:15:15;97116.00;;;3.40
20058;BMP180;10189;49.546;7.906;2022-12-10T03:17:44;97112.00;;;3.30
20058;BMP180;10189;49.546;7.906;2022-12-10T03:20:14;97108.00;;;3.30
20058;BMP180;10189;49.546;7.906;2022-12-10T03:22:45;97108.00;;;3.30
20058;BMP180;10189;49.546;7.906;2022-12-10T03:25:18;97115.00;;;3.30
20058;BMP180;10189;49.546;7.906;2022-12-10T03:27:48;97119.00;;;3.30
20058;BMP180;10189;49.546;7.906;2022-12-10T03:30:15;97111.00;;;3.40
20058;BMP180;10189;49.546;7.906;2022-12-10T03:32:43;97117.00;;;3.40
20058;BMP180;10189;49.546;7.906;2022-12-10T03:35:11;97115.00;;;3.40
20058;BMP180;10189;49.546;7.906;2022-12-10T03:37:38;97119.00;;;3.40
20058;BMP180;10189;49.546;7.906;2022-12-10T03:40:06;97112.00;;;3.40
20058;BMP180;10189;49.546;7.906;2022-12-10T03:42:36;97123.00;;;3.30
20058;BMP180;10189;49.546;7.906;2022-12-10T03:45:04;97127.00;;;3.30
20058;BMP180;10189;49.546;7.906;2022-12-10T03:47:30;97126.00;;;3.40
20058;BMP180;10189;49.546;7.906;2022-12-10T03:49:55;97121.00;;;3.30
20058;BMP180;10189;49.546;7.906;2022-12-10T03:52:21;97119.00;;;3.30
20058;BMP180;10189;49.546;7.906;2022-12-10T03:54:47;97117.00;;;3.30
20058;BMP180;10189;49.546;7.906;2022-12-10T03:57:13;97115.00;;;3.30
20058;BMP180;10189;49.546;7.906;2022-12-10T03:59:39;97125.00;;;3.30
20058;BMP180;10189;49.546;7.906;2022-12-10T04:02:05;97126.00;;;3.30
20058;BMP180;10189;49.546;7.906;2022-12-10T04:04:31;97132.00;;;3.20
20058;BMP180;10189;49.546;7.906;2022-12-10T04:06:58;97132.00;;;3.10
20058;BMP180;10189;49.546;7.906;2022-12-10T04:09:24;97138.00;;;3.20
20058;BMP180;10189;49.546;7.906;2022-12-10T04:11:49;97146.00;;;3.20
20058;BMP180;10189;49.546;7.906;2022-12-10T04:14:15;97130.00;;;3.10
20058;BMP180;10189;49.546;7.906;2022-12-10T04:17:00;97137.00;;;3.10
20058;BMP180;10189;49.546;7.906;2022-12-10T04:19:26;97129.00;;;3.10
20058;BMP180;10189;49.546;7.906;2022-12-10T04:21:52;97141.00;;;3.10
20058;BMP180;10189;49.546;7.906;2022-12-10T04:24:37;97144.00;;;3.00
20058;BMP180;10189;49.546;7.906;2022-12-10T04:27:37;97150.00;;;3.00
20058;BMP180;10189;49.546;7.906;2022-12-10T04:30:07;97159.00;;;3.00
20058;BMP180;10189;49.546;7.906;2022-12-10T04:32:34;97156.00;;;3.00
20058;BMP180;10189;49.546;7.906;2022-12-10T04:35:00;97147.00;;;3.00
20058;BMP180;10189;49.546;7.906;2022-12-10T04:37:27;97156.00;;;3.00
20058;BMP180;10189;49.546;7.906;2022-12-10T04:39:53;97158.00;;;3.00
20058;BMP180;10189;49.546;7.906;2022-12-10T04:42:21;97167.00;;;3.00
20058;BMP180;10189;49.546;7.906;2022-12-10T04:44:48;97164.00;;;3.00
20058;BMP180;10189;49.546;7.906;2022-12-10T04:47:14;97166.00;;;3.00
20058;BMP180;10189;49.546;7.906;2022-12-10T04:49:40;97162.00;;;3.00
20058;BMP180;10189;49.546;7.906;2022-12-10T04:52:08;97158.00;;;2.90
20058;BMP180;10189;49.546;7.906;2022-12-10T04:54:35;97164.00;;;2.90
20058;BMP180;10189;49.546;7.906;2022-12-10T04:57:01;97171.00;;;2.90
20058;BMP180;10189;49.546;7.906;2022-12-10T04:59:27;97162.00;;;2.90
20058;BMP180;10189;49.546;7.906;2022-12-10T05:01:55;97171.00;;;2.80
20058;BMP180;10189;49.546;7.906;2022-12-10T05:04:20;97176.00;;;2.90
20058;BMP180;10189;49.546;7.906;2022-12-10T05:06:49;97175.00;;;2.90
20058;BMP180;10189;49.546;7.906;2022-12-10T05:09:16;97165.00;;;3.00
20058;BMP180;10189;49.546;7.906;2022-12-10T05:11:43;97187.00;;;2.90
20058;BMP180;10189;49.546;7.906;2022-12-10T05:14:14;97176.00;;;2.90
20058;BMP180;10189;49.546;7.906;2022-12-10T05:16:41;97181.00;;;3.00
20058;BMP180;10189;49.546;7.906;2022-12-10T05:19:09;97181.00;;;2.90
20058;BMP180;10189;49.546;7.906;2022-12-10T05:21:35;97182.00;;;3.00
20058;BMP180;10189;49.546;7.906;2022-12-10T05:24:19;97183.00;;;3.00
20058;BMP180;10189;49.546;7.906;2022-12-10T05:26:45;97173.00;;;3.00
20058;BMP180;10189;49.546;7.906;2022-12-10T05:29:13;97177.00;;;3.10
20058;BMP180;10189;49.546;7.906;2022-12-10T05:31:39;97193.00;;;2.90
20058;BMP180;10189;49.546;7.906;2022-12-10T05:34:04;97188.00;;;2.90
20058;BMP180;10189;49.546;7.906;2022-12-10T05:36:31;97183.00;;;2.90
20058;BMP180;10189;49.546;7.906;2022-12-10T05:38:58;97182.00;;;3.00
20058;BMP180;10189;49.546;7.906;2022-12-10T05:41:31;97191.00;;;3.10
20058;BMP180;10189;49.546;7.906;2022-12-10T05:43:58;97179.00;;;3.20
20058;BMP180;10189;49.546;7.906;2022-12-10T05:46:29;97186.00;;;3.10
20058;BMP180;10189;49.546;7.906;2022-12-10T05:48:56;97188.00;;;3.20
20058;BMP180;10189;49.546;7.906;2022-12-10T05:51:26;97194.00;;;3.20
20058;BMP180;10189;49.546;7.906;2022-12-10T05:53:54;97197.00;;;3.20
20058;BMP180;10189;49.546;7.906;2022-12-10T05:56:23;97193.00;;;3.10
20058;BMP180;10189;49.546;7.906;2022-12-10T05:58:51;97194.00;;;3.00
20058;BMP180;10189;49.546;7.906;2022-12-10T06:01:25;97203.00;;;2.90
20058;BMP180;10189;49.546;7.906;2022-12-10T06:03:52;97215.00;;;2.90
20058;BMP180;10189;49.546;7.906;2022-12-10T06:06:25;97208.00;;;3.00
20058;BMP180;10189;49.546;7.906;2022-12-10T06:08:52;97208.00;;;3.10
20058;BMP180;10189;49.546;7.906;2022-12-10T06:11:19;97209.00;;;3.00
20058;BMP180;10189;49.546;7.906;2022-12-10T06:13:45;97210.00;;;2.90
20058;BMP180;10189;49.546;7.906;2022-12-10T06:16:13;97215.00;;;2.90
20058;BMP180;10189;49.546;7.906;2022-12-10T06:18:40;97224.00;;;3.00
20058;BMP180;10189;49.546;7.906;2022-12-10T06:21:10;97221.00;;;3.00
20058;BMP180;10189;49.546;7.906;2022-12-10T06:23:38;97221.00;;;2.90
20058;BMP180;10189;49.546;7.906;2022-12-10T06:26:10;97234.00;;;2.80
20058;BMP180;10189;49.546;7.906;2022-12-10T06:28:37;97235.00;;;2.90
20058;BMP180;10189;49.546;7.906;2022-12-10T06:31:04;97237.00;;;2.80
20058;BMP180;10189;49.546;7.906;2022-12-10T06:33:31;97233.00;;;2.80
20058;BMP180;10189;49.546;7.906;2022-12-10T06:35:57;97234.00;;;2.70
20058;BMP180;10189;49.546;7.906;2022-12-10T06:38:24;97236.00;;;2.90
20058;BMP180;10189;49.546;7.906;2022-12-10T06:40:51;97238.00;;;3.00
20058;BMP180;10189;49.546;7.906;2022-12-10T06:43:18;97254.00;;;2.90
20058;BMP180;10189;49.546;7.906;2022-12-10T06:45:45;97241.00;;;2.90
20058;BMP180;10189;49.546;7.906;2022-12-10T06:48:12;97247.00;;;2.90
20058;BMP180;10189;49.546;7.906;2022-12-10T06:50:38;97243.00;;;2.90
20058;BMP180;10189;49.546;7.906;2022-12-10T06:53:04;97259.00;;;2.90
20058;BMP180;10189;49.546;7.906;2022-12-10T06:55:30;97261.00;;;2.80
20058;BMP180;10189;49.546;7.906;2022-12-10T06:57:56;97255.00;;;2.90
20058;BMP180;10189;49.546;7.906;2022-12-10T07:00:22;97259.00;;;3.00
20058;BMP180;10189;49.546;7.906;2022-12-10T07:02:49;97257.00;;;3.00
20058;BMP180;10189;49.546;7.906;2022-12-10T07:05:15;97259.00;;;3.10
20058;BMP180;10189;49.546;7.906;2022-12-10T07:07:42;97266.00;;;2.90
20058;BMP180;10189;49.546;7.906;2022-12-10T07:10:09;97271.00;;;2.90
20058;BMP180;10189;49.546;7.906;2022-12-10T07:12:35;97275.00;;;2.90
20058;BMP180;10189;49.546;7.906;2022-12-10T07:15:01;97277.00;;;2.90
20058;BMP180;10189;49.546;7.906;2022-12-10T07:17:27;97273.00;;;2.90
20058;BMP180;10189;49.546;7.906;2022-12-10T07:19:53;97287.00;;;2.80
20058;BMP180;10189;49.546;7.906;2022-12-10T07:22:19;97272.00;;;2.90
20058;BMP180;10189;49.546;7.906;2022-12-10T07:24:47;97279.00;;;3.00
20058;BMP180;10189;49.546;7.906;2022-12-10T07:27:13;97285.00;;;3.00
20058;BMP180;10189;49.546;7.906;2022-12-10T07:29:40;97284.00;;;3.00
20058;BMP180;10189;49.546;7.906;2022-12-10T07:32:06;97290.00;;;3.00
20058;BMP180;10189;49.546;7.906;2022-12-10T07:34:32;97293.00;;;2.90
20058;BMP180;10189;49.546;7.906;2022-12-10T07:36:58;97305.00;;;2.70
20058;BMP180;10189;49.546;7.906;2022-12-10T07:39:24;97299.00;;;2.70
20058;BMP180;10189;49.546;7.906;2022-12-10T07:41:52;97301.00;;;2.90
20058;BMP180;10189;49.546;7.906;2022-12-10T07:44:20;97309.00;;;2.90
20058;BMP180;10189;49.546;7.906;2022-12-10T07:46:49;97308.00;;;2.90
20058;BMP180;10189;49.546;7.906;2022-12-10T07:49:16;97310.00;;;2.80
20058;BMP180;10189;49.546;7.906;2022-12-10T07:51:47;97320.00;;;2.80
20058;BMP180;10189;49.546;7.906;2022-12-10T07:54:14;97316.00;;;2.80
20058;BMP180;10189;49.546;7.906;2022-12-10T07:56:41;97311.00;;;2.80
20058;BMP180;10189;49.546;7.906;2022-12-10T07:59:07;97314.00;;;2.80
20058;BMP180;10189;49.546;7.906;2022-12-10T08:01:33;97320.00;;;2.80
20058;BMP180;10189;49.546;7.906;2022-12-10T08:03:59;97312.00;;;2.90
20058;BMP180;10189;49.546;7.906;2022-12-10T08:06:27;97315.00;;;3.00
20058;BMP180;10189;49.546;7.906;2022-12-10T08:08:54;97331.00;;;3.00
20058;BMP180;10189;49.546;7.906;2022-12-10T08:11:21;97319.00;;;3.00
20058;BMP180;10189;49.546;7.906;2022-12-10T08:13:48;97326.00;;;2.90
20058;BMP180;10189;49.546;7.906;2022-12-10T08:16:21;97305.00;;;3.00
20058;BMP180;10189;49.546;7.906;2022-12-10T08:18:49;97301.00;;;3.00
20058;BMP180;10189;49.546;7.906;2022-12-10T08:21:21;97313.00;;;3.20
20058;BMP180;10189;49.546;7.906;2022-12-10T08:23:47;97311.00;;;3.10
20058;BMP180;10189;49.546;7.906;2022-12-10T08:26:22;97322.00;;;3.00
20058;BMP180;10189;49.546;7.906;2022-12-10T08:28:50;97326.00;;;3.00
20058;BMP180;10189;49.546;7.906;2022-12-10T08:31:19;97329.00;;;2.90
20058;BMP180;10189;49.546;7.906;2022-12-10T08:33:45;97336.00;;;2.80
20058;BMP180;10189;49.546;7.906;2022-12-10T08:36:13;97342.00;;;2.70
20058;BMP180;10189;49.546;7.906;2022-12-10T08:38:41;97348.00;;;2.60
20058;BMP180;10189;49.546;7.906;2022-12-10T08:41:14;97345.00;;;2.70
20058;BMP180;10189;49.546;7.906;2022-12-10T08:43:41;97347.00;;;2.70
20058;BMP180;10189;49.546;7.906;2022-12-10T08:46:08;97345.00;;;2.60
20058;BMP180;10189;49.546;7.906;2022-12-10T08:48:35;97347.00;;;2.70
20058;BMP180;10189;49.546;7.906;2022-12-10T08:51:02;97342.00;;;2.70
20058;BMP180;10189;49.546;7.906;2022-12-10T08:53:30;97350.00;;;2.50
20058;BMP180;10189;49.546;7.906;2022-12-10T08:55:56;97362.00;;;2.50
20058;BMP180;10189;49.546;7.906;2022-12-10T08:58:22;97366.00;;;2.50
20058;BMP180;10189;49.546;7.906;2022-12-10T09:00:49;97370.00;;;2.50
20058;BMP180;10189;49.546;7.906;2022-12-10T09:03:16;97365.00;;;2.50
20058;BMP180;10189;49.546;7.906;2022-12-10T09:05:42;97356.00;;;2.50
20058;BMP180;10189;49.546;7.906;2022-12-10T09:08:09;97369.00;;;2.50
20058;BMP180;10189;49.546;7.906;2022-12-10T09:10:37;97369.00;;;2.50
20058;BMP180;10189;49.546;7.906;2022-12-10T09:13:03;97354.00;;;2.60
20058;BMP180;10189;49.546;7.906;2022-12-10T09:15:29;97354.00;;;2.60
20058;BMP180;10189;49.546;7.906;2022-12-10T09:17:55;97355.00;;;2.50
20058;BMP180;10189;49.546;7.906;2022-12-10T09:20:21;97353.00;;;2.60
20058;BMP180;10189;49.546;7.906;2022-12-10T09:22:47;97346.00;;;2.50
20058;BMP180;10189;49.546;7.906;2022-12-10T09:25:13;97362.00;;;2.60
20058;BMP180;10189;49.546;7.906;2022-12-10T09:27:41;97358.00;;;2.70
20058;BMP180;10189;49.546;7.906;2022-12-10T09:30:10;97358.00;;;2.80
20058;BMP180;10189;49.546;7.906;2022-12-10T09:32:37;97358.00;;;2.70
20058;BMP180;10189;49.546;7.906;2022-12-10T09:35:03;97359.00;;;2.60
20058;BMP180;10189;49.546;7.906;2022-12-10T09:37:29;97362.00;;;2.60
20058;BMP180;10189;49.546;7.906;2022-12-10T09:39:55;97365.00;;;2.50
20058;BMP180;10189;49.546;7.906;2022-12-10T09:42:34;97368.00;;;2.70
20058;BMP180;10189;49.546;7.906;2022-12-10T09:45:43;97372.00;;;2.80
20058;BMP180;10189;49.546;7.906;2022-12-10T09:51:34;97355.00;;;3.00
20058;BMP180;10189;49.546;7.906;2022-12-10T09:54:02;97353.00;;;3.20
20058;BMP180;10189;49.546;7.906;2022-12-10T09:56:35;97357.00;;;3.20
20058;BMP180;10189;49.546;7.906;2022-12-10T09:59:21;97353.00;;;3.10
20058;BMP180;10189;49.546;7.906;2022-12-10T10:02:20;97364.00;;;3.10
20058;BMP180;10189;49.546;7.906;2022-12-10T10:04:52;97359.00;;;3.20
20058;BMP180;10189;49.546;7.906;2022-12-10T10:07:30;97359.00;;;3.30
20058;BMP180;10189;49.546;7.906;2022-12-10T10:10:20;97360.00;;;3.20
20058;BMP180;10189;49.546;7.906;2022-12-10T10:12:51;97358.00;;;3.10
20058;BMP180;10189;49.546;7.906;2022-12-10T10:15:42;97368.00;;;3.30
20058;BMP180;10189;49.546;7.906;2022-12-10T10:18:36;97370.00;;;3.40
20058;BMP180;10189;49.546;7.906;2022-12-10T10:21:21;97366.00;;;3.30
20058;BMP180;10189;49.546;7.906;2022-12-10T10:23:47;97364.00;;;3.30
20058;BMP180;10189;49.546;7.906;2022-12-10T10:26:14;97355.00;;;3.40
20058;BMP180;10189;49.546;7.906;2022-12-10T10:28:41;97362.00;;;3.50
20058;BMP180;10189;49.546;7.906;2022-12-10T10:31:20;97354.00;;;3.70
20058;BMP180;10189;49.546;7.906;2022-12-10T10:33:59;97346.00;;;3.80
20058;BMP180;10189;49.546;7.906;2022-12-10T10:36:35;97354.00;;;3.60
20058;BMP180;10189;49.546;7.906;2022-12-10T10:41:51;97353.00;;;4.00
20058;BMP180;10189;49.546;7.906;2022-12-10T10:44:23;97348.00;;;3.80
20058;BMP180;10189;49.546;7.906;2022-12-10T10:46:53;97358.00;;;3.70
20058;BMP180;10189;49.546;7.906;2022-12-10T10:49:26;97354.00;;;3.80
20058;BMP180;10189;49.546;7.906;2022-12-10T10:51:59;97353.00;;;3.80
20058;BMP180;10189;49.546;7.906;2022-12-10T10:54:41;97351.00;;;3.90
20058;BMP180;10189;49.546;7.906;2022-12-10T10:57:27;97354.00;;;3.80
20058;BMP180;10189;49.546;7.906;2022-12-10T11:00:22;97367.00;;;3.70
20058;BMP180;10189;49.546;7.906;2022-12-10T11:02:49;97367.00;;;3.70
20058;BMP180;10189;49.546;7.906;2022-12-10T11:05:29;97364.00;;;3.60
20058;BMP180;10189;49.546;7.906;2022-12-10T11:08:05;97371.00;;;3.60
20058;BMP180;10189;49.546;7.906;2022-12-10T11:10:33;97364.00;;;3.90
20058;BMP180;10189;49.546;7.906;2022-12-10T11:13:06;97375.00;;;4.00
20058;BMP180;10189;49.546;7.906;2022-12-10T11:15:39;97364.00;;;4.00
20058;BMP180;10189;49.546;7.906;2022-12-10T11:18:29;97364.00;;;4.10
20058;BMP180;10189;49.546;7.906;2022-12-10T11:21:18;97363.00;;;4.10
20058;BMP180;10189;49.546;7.906;2022-12-10T11:23:52;97363.00;;;4.10
20058;BMP180;10189;49.546;7.906;2022-12-10T11:35:30;97363.00;;;4.00
20058;BMP180;10189;49.546;7.906;2022-12-10T11:38:29;97348.00;;;4.30
20058;BMP180;10189;49.546;7.906;2022-12-10T11:42:09;97355.00;;;4.20
20058;BMP180;10189;49.546;7.906;2022-12-10T11:44:34;97358.00;;;4.30
20058;BMP180;10189;49.546;7.906;2022-12-10T11:50:36;97364.00;;;4.00
20058;BMP180;10189;49.546;7.906;2022-12-10T12:02:15;97354.00;;;4.30
20058;BMP180;10189;49.546;7.906;2022-12-10T12:05:40;97359.00;;;4.10
20058;BMP180;10189;49.546;7.906;2022-12-10T12:14:26;97361.00;;;4.20
20058;BMP180;10189;49.546;7.906;2022-12-10T12:17:30;97375.00;;;4.30
20058;BMP180;10189;49.546;7.906;2022-12-10T12:20:02;97365.00;;;4.50
20058;BMP180;10189;49.546;7.906;2022-12-10T12:22:34;97376.00;;;4.60
20058;BMP180;10189;49.546;7.906;2022-12-10T12:25:31;97372.00;;;4.90
20058;BMP180;10189;49.546;7.906;2022-12-10T12:28:30;97370.00;;;4.80
20058;BMP180;10189;49.546;7.906;2022-12-10T12:31:14;97367.00;;;4.90
20058;BMP180;10189;49.546;7.906;2022-12-10T12:33:54;97364.00;;;5.00
20058;BMP180;10189;49.546;7.906;2022-12-10T12:36:31;97361.00;;;5.00
20058;BMP180;10189;49.546;7.906;2022-12-10T12:39:32;97358.00;;;5.20
20058;BMP180;10189;49.546;7.906;2022-12-10T12:42:24;97374.00;;;5.00
20058;BMP180;10189;49.546;7.906;2022-12-10T12:45:01;97373.00;;;4.70
20058;BMP180;10189;49.546;7.906;2022-12-10T12:49:56;97376.00;;;4.60
20058;BMP180;10189;49.546;7.906;2022-12-10T12:52:50;97376.00;;;4.60
20058;BMP180;10189;49.546;7.906;2022-12-10T12:55:28;97376.00;;;4.50
20058;BMP180;10189;49.546;7.906;2022-12-10T12:58:13;97383.00;;;4.50
20058;BMP180;10189;49.546;7.906;2022-12-10T13:00:46;97376.00;;;4.70
20058;BMP180;10189;49.546;7.906;2022-12-10T13:03:33;97383.00;;;4.80
20058;BMP180;10189;49.546;7.906;2022-12-10T13:06:16;97386.00;;;4.80
20058;BMP180;10189;49.546;7.906;2022-12-10T13:08:52;97380.00;;;4.80
20058;BMP180;10189;49.546;7.906;2022-12-10T13:11:35;97383.00;;;4.80
20058;BMP180;10189;49.546;7.906;2022-12-10T13:25:04;97400.00;;;4.70
20058;BMP180;10189;49.546;7.906;2022-12-10T13:27:34;97396.00;;;4.70
20058;BMP180;10189;49.546;7.906;2022-12-10T13:30:35;97408.00;;;4.70
20058;BMP180;10189;49.546;7.906;2022-12-10T13:33:19;97421.00;;;4.60
20058;BMP180;10189;49.546;7.906;2022-12-10T13:36:04;97423.00;;;4.50
20058;BMP180;10189;49.546;7.906;2022-12-10T13:38:41;97422.00;;;4.40
20058;BMP180;10189;49.546;7.906;2022-12-10T13:41:19;97428.00;;;4.40
20058;BMP180;10189;49.546;7.906;2022-12-10T13:44:49;97425.00;;;4.10
20058;BMP180;10189;49.546;7.906;2022-12-10T13:47:31;97439.00;;;4.00
20058;BMP180;10189;49.546;7.906;2022-12-10T13:50:03;97427.00;;;4.00
20058;BMP180;10189;49.546;7.906;2022-12-10T14:06:21;97467.00;;;3.30
20058;BMP180;10189;49.546;7.906;2022-12-10T14:09:05;97469.00;;;3.20
20058;BMP180;10189;49.546;7.906;2022-12-10T14:11:39;97477.00;;;3.20
20058;BMP180;10189;49.546;7.906;2022-12-10T14:14:15;97466.00;;;3.10
20058;BMP180;10189;49.546;7.906;2022-12-10T14:16:42;97471.00;;;3.20
20058;BMP180;10189;49.546;7.906;2022-12-10T14:19:14;97460.00;;;3.10
20058;BMP180;10189;49.546;7.906;2022-12-10T14:21:44;97460.00;;;3.10
20058;BMP180;10189;49.546;7.906;2022-12-10T14:24:37;97460.00;;;3.00
20058;BMP180;10189;49.546;7.906;2022-12-10T14:29:59;97496.00;;;2.90
20058;BMP180;10189;49.546;7.906;2022-12-10T14:32:33;97484.00;;;2.90
20058;BMP180;10189;49.546;7.906;2022-12-10T14:35:03;97491.00;;;2.80
20058;BMP180;10189;49.546;7.906;2022-12-10T14:37:35;97497.00;;;2.80
20058;BMP180;10189;49.546;7.906;2022-12-10T14:40:05;97488.00;;;2.80
20058;BMP180;10189;49.546;7.906;2022-12-10T14:42:33;97492.00;;;2.70
20058;BMP180;10189;49.546;7.906;2022-12-10T14:45:03;97504.00;;;2.70
20058;BMP180;10189;49.546;7.906;2022-12-10T14:47:38;97503.00;;;2.60
20058;BMP180;10189;49.546;7.906;2022-12-10T14:50:12;97512.00;;;2.60
20058;BMP180;10189;49.546;7.906;2022-12-10T14:52:50;97518.00;;;2.50
20058;BMP180;10189;49.546;7.906;2022-12-10T14:55:21;97516.00;;;2.50
20058;BMP180;10189;49.546;7.906;2022-12-10T14:57:55;97517.00;;;2.40
20058;BMP180;10189;49.546;7.906;2022-12-10T15:00:23;97524.00;;;2.30
20058;BMP180;10189;49.546;7.906;2022-12-10T15:02:56;97516.00;;;2.20
20058;BMP180;10189;49.546;7.906;2022-12-10T15:05:27;97523.00;;;2.20
20058;BMP180;10189;49.546;7.906;2022-12-10T15:08:11;97519.00;;;2.10
20058;BMP180;10189;49.546;7.906;2022-12-10T15:10:43;97524.00;;;2.10
20058;BMP180;10189;49.546;7.906;2022-12-10T15:13:21;97523.00;;;2.10
20058;BMP180;10189;49.546;7.906;2022-12-10T15:15:50;97531.00;;;2.00
20058;BMP180;10189;49.546;7.906;2022-12-10T15:18:27;97543.00;;;1.90
20058;BMP180;10189;49.546;7.906;2022-12-10T15:23:42;97542.00;;;1.80
20058;BMP180;10189;49.546;7.906;2022-12-10T15:26:19;97557.00;;;1.70
20058;BMP180;10189;49.546;7.906;2022-12-10T15:28:47;97547.00;;;1.60
20058;BMP180;10189;49.546;7.906;2022-12-10T15:34:17;97563.00;;;1.50
20058;BMP180;10189;49.546;7.906;2022-12-10T15:36:51;97572.00;;;1.40
20058;BMP180;10189;49.546;7.906;2022-12-10T15:39:30;97563.00;;;1.40
20058;BMP180;10189;49.546;7.906;2022-12-10T15:42:04;97558.00;;;1.30
20058;BMP180;10189;49.546;7.906;2022-12-10T15:44:45;97570.00;;;1.30
20058;BMP180;10189;49.546;7.906;2022-12-10T15:47:25;97571.00;;;1.20
20058;BMP180;10189;49.546;7.906;2022-12-10T15:49:55;97579.00;;;1.30
20058;BMP180;10189;49.546;7.906;2022-12-10T15:52:31;97582.00;;;1.30
20058;BMP180;10189;49.546;7.906;2022-12-10T15:54:58;97560.00;;;1.50
20058;BMP180;10189;49.546;7.906;2022-12-10T15:57:34;97564.00;;;1.50
20058;BMP180;10189;49.546;7.906;2022-12-10T16:00:15;97571.00;;;1.40
20058;BMP180;10189;49.546;7.906;2022-12-10T16:03:04;97569.00;;;1.40
20058;BMP180;10189;49.546;7.906;2022-12-10T16:05:34;97582.00;;;1.30